createdAt,value
2018-12-19T00:02:56.453Z,13.37
2018-12-19T00:06:03.149Z,12.93
2018-12-19T00:09:08.426Z,13.10
2018-12-19T00:12:14.309Z,13.67
2018-12-19T00:15:19.038Z,14.20
2018-12-19T00:18:25.597Z,13.27
2018-12-19T00:21:30.452Z,13.47
2018-12-19T00:24:35.048Z,13.97
2018-12-19T00:27:41.936Z,13.90
2018-12-19T00:30:48.542Z,13.67
2018-12-19T00:33:55.266Z,13.37
2018-12-19T00:37:01.726Z,14.60
2018-12-19T00:40:07.657Z,14.37
2018-12-19T00:43:12.307Z,13.57
2018-12-19T00:46:17.007Z,13.30
2018-12-19T00:49:21.714Z,12.63
2018-12-19T00:52:26.304Z,13.97
2018-12-19T00:55:30.881Z,12.53
2018-12-19T00:58:35.429Z,10.43
2018-12-19T01:01:40.018Z,10.00
2018-12-19T01:04:48.055Z,11.93
2018-12-19T01:07:51.157Z,11.03
2018-12-19T01:10:55.648Z,10.63
2018-12-19T01:14:00.303Z,11.17
2018-12-19T01:17:04.934Z,11.73
2018-12-19T01:20:09.569Z,11.63
2018-12-19T01:23:14.197Z,11.53
2018-12-19T01:26:18.723Z,11.70
2018-12-19T01:29:23.152Z,12.00
2018-12-19T01:32:27.722Z,10.00
2018-12-19T01:35:32.355Z,10.77
2018-12-19T01:38:36.898Z,11.80
2018-12-19T01:41:41.588Z,11.07
2018-12-19T01:44:46.328Z,12.13
2018-12-19T01:47:51.007Z,11.80
2018-12-19T01:50:55.652Z,11.33
2018-12-19T01:54:00.240Z,11.17
2018-12-19T01:57:04.849Z,11.23
2018-12-19T02:00:09.636Z,11.60
2018-12-19T02:03:14.290Z,10.77
2018-12-19T02:06:19.040Z,10.67
2018-12-19T02:09:28.868Z,11.63
2018-12-19T02:12:30.162Z,11.00
2018-12-19T02:15:34.896Z,12.57
2018-12-19T02:18:39.730Z,11.83
2018-12-19T02:21:44.361Z,12.33
2018-12-19T02:24:48.921Z,12.07
2018-12-19T02:27:53.722Z,10.63
2018-12-19T02:30:58.318Z,10.90
2018-12-19T02:34:03.079Z,10.13
2018-12-19T02:37:07.813Z,11.13
2018-12-19T02:40:12.511Z,11.67
2018-12-19T02:43:17.266Z,11.57
2018-12-19T02:46:21.902Z,11.40
2018-12-19T02:49:26.567Z,12.43
2018-12-19T02:52:31.287Z,11.73
2018-12-19T02:55:35.904Z,11.50
2018-12-19T02:58:40.496Z,10.93
2018-12-19T03:01:45.142Z,10.70
2018-12-19T03:04:49.698Z,10.47
2018-12-19T03:07:54.541Z,10.43
2018-12-19T03:10:59.308Z,11.00
2018-12-19T03:14:04.005Z,10.63
2018-12-19T03:17:08.701Z,10.80
2018-12-19T03:20:13.272Z,10.80
2018-12-19T03:23:17.854Z,10.93
2018-12-19T03:26:22.465Z,11.17
2018-12-19T03:29:27.111Z,9.77
2018-12-19T03:32:31.684Z,11.50
2018-12-19T03:35:36.275Z,9.50
2018-12-19T03:38:40.861Z,10.20
2018-12-19T03:41:45.847Z,10.13
2018-12-19T03:44:50.468Z,10.87
2018-12-19T03:47:56.120Z,10.03
2018-12-19T03:51:00.730Z,10.20
2018-12-19T03:54:05.289Z,11.27
2018-12-19T03:57:10.321Z,10.53
2018-12-19T04:00:14.985Z,9.83
2018-12-19T04:03:19.715Z,11.10
2018-12-19T04:06:24.408Z,10.67
2018-12-19T04:09:29.034Z,11.10
2018-12-19T04:12:33.621Z,10.33
2018-12-19T04:15:38.211Z,9.53
2018-12-19T04:18:45.723Z,10.67
2018-12-19T04:21:50.275Z,10.50
2018-12-19T04:24:54.885Z,10.80
2018-12-19T04:27:59.570Z,9.60
2018-12-19T04:31:04.188Z,10.27
2018-12-19T04:34:08.799Z,10.67
2018-12-19T04:37:13.361Z,10.33
2018-12-19T04:40:17.992Z,10.43
2018-12-19T04:43:22.588Z,10.27
2018-12-19T04:46:27.181Z,10.10
2018-12-19T04:49:31.714Z,11.03
2018-12-19T04:52:36.198Z,9.87
2018-12-19T04:55:41.710Z,10.70
2018-12-19T04:58:46.231Z,10.20
2018-12-19T05:01:50.864Z,11.13
2018-12-19T05:04:55.527Z,10.73
2018-12-19T05:08:00.224Z,10.80
2018-12-19T05:11:04.966Z,10.63
2018-12-19T05:14:09.578Z,9.73
2018-12-19T05:17:14.202Z,11.17
2018-12-19T05:20:18.688Z,10.87
2018-12-19T05:23:23.369Z,11.13
2018-12-19T05:26:27.993Z,11.43
2018-12-19T05:29:32.634Z,10.60
2018-12-19T05:32:37.217Z,11.30
2018-12-19T05:35:41.814Z,10.70
2018-12-19T05:38:46.442Z,10.90
2018-12-19T05:41:51.114Z,12.80
2018-12-19T05:44:55.671Z,12.33
2018-12-19T05:48:00.202Z,10.73
2018-12-19T05:51:04.775Z,11.27
2018-12-19T05:54:09.421Z,11.60
2018-12-19T05:57:14.188Z,11.13
2018-12-19T06:00:18.730Z,10.90
2018-12-19T06:03:25.481Z,11.83
2018-12-19T06:06:30.243Z,13.43
2018-12-19T06:09:34.885Z,11.43
2018-12-19T06:12:39.516Z,11.37
2018-12-19T06:15:44.301Z,11.93
2018-12-19T06:18:48.949Z,12.23
2018-12-19T06:21:53.571Z,11.93
2018-12-19T06:24:58.214Z,12.00
2018-12-19T06:28:02.867Z,12.87
2018-12-19T06:31:07.572Z,13.10
2018-12-19T06:34:12.222Z,12.10
2018-12-19T06:37:16.746Z,12.60
2018-12-19T06:40:21.337Z,11.87
2018-12-19T06:43:25.876Z,14.07
2018-12-19T06:46:30.531Z,13.07
2018-12-19T06:49:35.169Z,13.70
2018-12-19T06:52:39.726Z,14.20
2018-12-19T06:55:44.265Z,12.30
2018-12-19T06:58:48.953Z,12.43
2018-12-19T07:01:53.593Z,13.00
2018-12-19T07:04:58.197Z,13.77
2018-12-19T07:08:02.749Z,12.33
2018-12-19T07:11:07.373Z,12.40
2018-12-19T07:14:11.926Z,11.63
2018-12-19T07:17:16.685Z,12.30
2018-12-19T07:20:21.391Z,13.67
2018-12-19T07:23:27.134Z,12.40
2018-12-19T07:26:31.852Z,11.77
2018-12-19T07:29:36.578Z,12.73
2018-12-19T07:32:41.217Z,13.43
2018-12-19T07:35:46.740Z,12.40
2018-12-19T07:38:51.343Z,12.27
2018-12-19T07:41:55.986Z,13.47
2018-12-19T07:45:00.485Z,14.17
2018-12-19T07:48:05.131Z,13.10
2018-12-19T07:51:09.813Z,14.60
2018-12-19T07:54:14.362Z,13.23
2018-12-19T07:57:18.986Z,13.70
2018-12-19T08:00:27.434Z,13.90
2018-12-19T08:03:30.497Z,13.87
2018-12-19T08:06:35.206Z,14.67
2018-12-19T08:09:39.786Z,18.53
2018-12-19T08:12:44.457Z,13.80
2018-12-19T08:15:48.966Z,12.43
2018-12-19T08:19:09.678Z,12.40
2018-12-19T08:22:19.934Z,11.60
2018-12-19T08:25:24.522Z,11.73
2018-12-19T08:28:29.148Z,13.23
2018-12-19T08:31:39.913Z,11.57
2018-12-19T08:34:44.490Z,11.17
2018-12-19T08:37:49.141Z,13.63
2018-12-19T08:40:58.781Z,14.97
2018-12-19T08:44:00.528Z,11.80
2018-12-19T08:47:05.101Z,11.87
2018-12-19T08:50:10.468Z,10.97
2018-12-19T08:53:14.974Z,11.70
2018-12-19T08:56:19.616Z,12.47
2018-12-19T08:59:24.165Z,11.50
2018-12-19T09:02:28.923Z,10.70
2018-12-19T09:05:33.487Z,10.90
2018-12-19T09:08:38.335Z,11.20
2018-12-19T09:11:42.981Z,12.23
2018-12-19T09:14:47.685Z,12.13
2018-12-19T09:17:52.277Z,10.80
2018-12-19T09:20:56.828Z,11.63
2018-12-19T09:24:01.546Z,11.73
2018-12-19T09:27:06.115Z,11.23
2018-12-19T09:30:10.649Z,12.33
2018-12-19T09:33:15.244Z,12.73
2018-12-19T09:36:19.956Z,12.27
2018-12-19T09:39:24.497Z,12.23
2018-12-19T09:42:29.094Z,12.27
2018-12-19T09:45:33.681Z,11.50
2018-12-19T09:48:38.138Z,13.30
2018-12-19T09:51:42.655Z,14.80
2018-12-19T09:54:47.257Z,11.70
2018-12-19T09:57:52.058Z,13.43
2018-12-19T10:00:57.213Z,14.43
2018-12-19T10:04:02.063Z,15.07
2018-12-19T10:07:06.696Z,17.13
2018-12-19T10:10:11.486Z,16.07
2018-12-19T10:13:16.264Z,13.87
2018-12-19T10:16:20.801Z,13.50
2018-12-19T10:19:25.386Z,15.23
2018-12-19T10:22:32.104Z,15.23
2018-12-19T10:25:36.715Z,17.70
2018-12-19T10:28:41.382Z,16.67
2018-12-19T10:31:46.107Z,16.30
2018-12-19T10:34:50.769Z,19.17
2018-12-19T10:37:55.399Z,17.73
2018-12-19T10:41:00.056Z,17.83
2018-12-19T10:44:04.920Z,14.23
2018-12-19T10:47:09.446Z,14.60
2018-12-19T10:50:14.051Z,13.73
2018-12-19T10:53:18.709Z,17.67
2018-12-19T10:56:23.234Z,16.10
2018-12-19T10:59:27.974Z,14.83
2018-12-19T11:02:32.617Z,14.00
2018-12-19T11:05:37.371Z,14.20
2018-12-19T11:08:42.966Z,15.37
2018-12-19T11:11:47.557Z,17.27
2018-12-19T11:14:52.266Z,16.03
2018-12-19T11:17:56.921Z,16.53
2018-12-19T11:21:01.769Z,16.37
2018-12-19T11:24:06.488Z,16.67
2018-12-19T11:27:17.629Z,14.20
2018-12-19T11:30:22.347Z,13.73
2018-12-19T11:33:27.026Z,13.43
2018-12-19T11:36:31.606Z,12.17
2018-12-19T11:39:37.142Z,11.90
2018-12-19T11:42:41.763Z,13.03
2018-12-19T11:45:46.406Z,13.47
2018-12-19T11:48:51.004Z,13.67
2018-12-19T11:51:55.637Z,12.30
2018-12-19T11:55:00.339Z,12.13
2018-12-19T11:58:05.082Z,13.57
2018-12-19T12:01:09.675Z,15.10
2018-12-19T12:04:14.339Z,15.07
2018-12-19T12:07:21.394Z,13.67
2018-12-19T12:10:25.951Z,14.47
2018-12-19T12:13:30.655Z,14.20
2018-12-19T12:16:35.337Z,12.93
2018-12-19T12:19:39.940Z,13.67
2018-12-19T12:22:44.685Z,14.07
2018-12-19T12:25:49.303Z,14.63
2018-12-19T12:28:53.953Z,16.63
2018-12-19T12:31:58.561Z,17.17
2018-12-19T12:35:03.371Z,18.87
2018-12-19T12:38:08.071Z,17.53
2018-12-19T12:41:12.611Z,16.27
2018-12-19T12:44:17.121Z,15.60
2018-12-19T12:47:21.947Z,14.97
2018-12-19T12:50:26.531Z,16.30
2018-12-19T12:53:31.209Z,15.83
2018-12-19T12:56:35.862Z,17.23
2018-12-19T12:59:40.542Z,17.13
2018-12-19T13:02:45.193Z,14.97
2018-12-19T13:05:49.701Z,15.83
2018-12-19T13:08:54.261Z,14.10
2018-12-19T13:11:59.060Z,12.13
2018-12-19T13:15:03.850Z,12.60
2018-12-19T13:18:08.466Z,13.33
2018-12-19T13:21:13.047Z,12.37
2018-12-19T13:24:17.918Z,12.80
2018-12-19T13:27:22.698Z,12.53
2018-12-19T13:30:27.237Z,12.53
2018-12-19T13:33:32.033Z,12.40
2018-12-19T13:36:36.834Z,11.97
2018-12-19T13:39:41.442Z,13.70
2018-12-19T13:42:45.981Z,13.20
2018-12-19T13:45:50.478Z,13.83
2018-12-19T13:48:55.086Z,13.57
2018-12-19T13:51:59.735Z,13.20
2018-12-19T13:55:04.592Z,13.47
2018-12-19T13:58:09.262Z,15.43
2018-12-19T14:01:13.938Z,17.03
2018-12-19T14:04:18.593Z,14.27
2018-12-19T14:07:23.241Z,14.43
2018-12-19T14:10:27.779Z,14.67
2018-12-19T14:13:32.458Z,14.13
2018-12-19T14:16:36.953Z,15.03
2018-12-19T14:19:41.562Z,14.60
2018-12-19T14:22:46.209Z,14.10
2018-12-19T14:25:51.189Z,16.17
2018-12-19T14:28:55.809Z,16.80
2018-12-19T14:32:00.409Z,15.27
2018-12-19T14:35:05.253Z,15.10
2018-12-19T14:38:09.853Z,16.07
2018-12-19T14:41:14.533Z,15.57
2018-12-19T14:44:19.217Z,15.40
2018-12-19T14:47:23.908Z,17.23
2018-12-19T14:50:28.502Z,20.13
2018-12-19T14:53:33.091Z,18.47
2018-12-19T14:56:37.652Z,15.80
2018-12-19T14:59:42.260Z,17.13
2018-12-19T15:02:46.989Z,16.60
2018-12-19T15:05:51.606Z,16.53
2018-12-19T15:08:56.191Z,26.10
2018-12-19T15:12:00.942Z,34.53
2018-12-19T15:15:06.890Z,30.97
2018-12-19T15:18:11.580Z,29.83
2018-12-19T15:21:16.189Z,29.40
2018-12-19T15:24:20.814Z,37.63
2018-12-19T15:27:25.364Z,42.10
2018-12-19T15:30:29.895Z,37.50
2018-12-19T15:33:34.561Z,48.70
2018-12-19T15:36:39.334Z,92.97
2018-12-19T15:39:43.963Z,103.63
2018-12-19T15:42:48.652Z,84.70
2018-12-19T15:45:53.270Z,72.50
2018-12-19T15:48:57.991Z,106.93
2018-12-19T15:52:02.647Z,108.53
2018-12-19T15:55:07.331Z,161.23
2018-12-19T15:58:12.005Z,63.83
2018-12-19T16:01:16.581Z,62.50
2018-12-19T16:04:21.131Z,45.87
2018-12-19T16:07:25.808Z,43.80
2018-12-19T16:10:30.461Z,43.40
2018-12-19T16:13:35.222Z,48.57
2018-12-19T16:16:39.884Z,40.00
2018-12-19T16:19:44.341Z,51.83
2018-12-19T16:22:48.845Z,46.47
2018-12-19T16:25:53.376Z,49.40
2018-12-19T16:28:58.017Z,54.07
2018-12-19T16:32:02.776Z,61.30
2018-12-19T16:35:07.846Z,52.60
2018-12-19T16:38:12.580Z,63.33
2018-12-19T16:41:17.253Z,66.43
2018-12-19T16:44:22.316Z,85.97
2018-12-19T16:47:26.921Z,48.00
2018-12-19T16:50:31.522Z,50.40
2018-12-19T16:53:36.257Z,53.83
2018-12-19T16:56:40.978Z,46.87
2018-12-19T16:59:45.556Z,52.40
2018-12-19T17:02:50.162Z,60.70
2018-12-19T17:05:54.823Z,59.27
2018-12-19T17:09:00.590Z,62.10
2018-12-19T17:12:07.271Z,56.77
2018-12-19T17:15:11.910Z,44.03
2018-12-19T17:18:16.504Z,50.00
2018-12-19T17:21:21.142Z,49.90
2018-12-19T17:24:30.875Z,50.40
2018-12-19T17:27:35.538Z,47.90
2018-12-19T17:30:40.130Z,51.07
2018-12-19T17:33:44.662Z,49.07
2018-12-19T17:36:49.237Z,54.30
2018-12-19T17:39:53.884Z,67.77
2018-12-19T17:42:59.533Z,76.13
2018-12-19T17:46:04.439Z,88.23
2018-12-19T17:49:09.098Z,78.80
2018-12-19T17:52:13.809Z,84.37
2018-12-19T17:55:18.393Z,64.00
2018-12-19T17:58:23.042Z,68.67
2018-12-19T18:01:27.646Z,59.73
2018-12-19T18:04:32.253Z,65.33
2018-12-19T18:07:36.860Z,76.17
2018-12-19T18:10:41.504Z,74.73
2018-12-19T18:13:46.172Z,70.13
2018-12-19T18:16:50.933Z,65.03
2018-12-19T18:19:55.584Z,59.67
2018-12-19T18:23:00.231Z,48.07
2018-12-19T18:26:04.944Z,43.83
2018-12-19T18:29:09.537Z,55.97
2018-12-19T18:32:14.311Z,54.20
2018-12-19T18:35:19.252Z,44.73
2018-12-19T18:38:23.884Z,46.07
2018-12-19T18:41:28.438Z,34.10
2018-12-19T18:44:33.306Z,33.00
2018-12-19T18:47:38.031Z,33.13
2018-12-19T18:50:42.790Z,30.50
2018-12-19T18:53:47.386Z,29.40
2018-12-19T18:56:51.973Z,98.13
2018-12-19T18:59:56.595Z,33.33
2018-12-19T19:03:01.272Z,37.73
2018-12-19T19:06:05.951Z,32.23
2018-12-19T19:09:10.554Z,32.07
2018-12-19T19:12:15.412Z,33.47
2018-12-19T19:15:20.009Z,32.90
2018-12-19T19:18:24.613Z,39.37
2018-12-19T19:21:29.312Z,35.17
2018-12-19T19:24:33.987Z,33.00
2018-12-19T19:27:38.597Z,37.17
2018-12-19T19:30:43.226Z,40.13
2018-12-19T19:33:47.803Z,35.23
2018-12-19T19:36:52.531Z,36.30
2018-12-19T19:39:57.484Z,36.67
2018-12-19T19:43:02.102Z,41.27
2018-12-19T19:46:06.676Z,40.30
2018-12-19T19:49:11.382Z,38.03
2018-12-19T19:52:15.986Z,38.57
2018-12-19T19:55:20.589Z,39.77
2018-12-19T19:58:25.384Z,37.20
2018-12-19T20:01:30.118Z,41.50
2018-12-19T20:04:34.761Z,35.90
2018-12-19T20:07:39.370Z,42.03
2018-12-19T20:10:44.066Z,36.23
2018-12-19T20:13:48.648Z,57.53
2018-12-19T20:16:58.373Z,46.37
2018-12-19T20:20:03.037Z,42.20
2018-12-19T20:23:07.594Z,40.30
2018-12-19T20:26:12.189Z,43.53
2018-12-19T20:29:16.837Z,45.10
2018-12-19T20:32:21.558Z,40.33
2018-12-19T20:35:26.133Z,70.83
2018-12-19T20:38:31.734Z,71.03
2018-12-19T20:41:36.361Z,38.17
2018-12-19T20:44:41.018Z,56.90
2018-12-19T20:47:45.726Z,36.80
2018-12-19T20:50:50.330Z,36.87
2018-12-19T20:53:56.051Z,34.53
2018-12-19T20:57:00.770Z,35.07
2018-12-19T21:00:06.790Z,36.17
2018-12-19T21:03:11.794Z,39.53
2018-12-19T21:06:16.457Z,33.50
2018-12-19T21:09:21.118Z,32.87
2018-12-19T21:12:25.722Z,34.73
2018-12-19T21:15:30.308Z,34.13
2018-12-19T21:18:40.378Z,32.83
2018-12-19T21:21:44.997Z,33.97
2018-12-19T21:24:49.545Z,32.50
2018-12-19T21:27:54.241Z,32.37
2018-12-19T21:30:58.894Z,32.83
2018-12-19T21:34:03.667Z,33.33
2018-12-19T21:37:08.257Z,34.93
2018-12-19T21:40:13.981Z,35.70
2018-12-19T21:43:18.750Z,33.37
2018-12-19T21:46:23.381Z,32.17
2018-12-19T21:49:28.124Z,33.10
2018-12-19T21:52:32.740Z,34.07
2018-12-19T21:55:37.475Z,33.43
2018-12-19T21:58:42.371Z,34.10
2018-12-19T22:01:46.994Z,36.53
2018-12-19T22:04:51.653Z,35.13
2018-12-19T22:07:56.516Z,35.27
2018-12-19T22:11:01.310Z,32.90
2018-12-19T22:14:06.245Z,34.33
2018-12-19T22:17:15.854Z,33.97
2018-12-19T22:20:20.434Z,33.63
2018-12-19T22:23:24.981Z,32.47
2018-12-19T22:26:30.970Z,33.47
2018-12-19T22:29:35.992Z,31.87
2018-12-19T22:32:40.585Z,31.00
2018-12-19T22:35:45.150Z,30.37
2018-12-19T22:38:49.776Z,29.80
2018-12-19T22:41:54.377Z,30.97
2018-12-19T22:44:58.908Z,29.40
2018-12-19T22:48:03.483Z,28.97
2018-12-19T22:51:08.185Z,28.30
2018-12-19T22:54:12.823Z,29.27
2018-12-19T22:57:17.403Z,27.13
2018-12-19T23:00:22.341Z,26.97
2018-12-19T23:03:34.173Z,28.40
2018-12-19T23:06:38.907Z,28.17
2018-12-19T23:09:43.598Z,28.97
2018-12-19T23:12:48.389Z,29.10
2018-12-19T23:15:53.063Z,28.93
2018-12-19T23:19:03.138Z,28.50
2018-12-19T23:22:13.468Z,27.23
2018-12-19T23:25:23.750Z,28.00
2018-12-19T23:28:30.439Z,27.80
2018-12-19T23:31:35.566Z,26.07
2018-12-19T23:34:40.225Z,27.10
2018-12-19T23:37:45.000Z,27.13
2018-12-19T23:40:49.660Z,27.10
2018-12-19T23:43:54.460Z,25.67
2018-12-19T23:46:59.324Z,25.70
2018-12-19T23:50:04.184Z,25.87
2018-12-19T23:53:08.754Z,24.13
2018-12-19T23:56:13.273Z,25.30
2018-12-19T23:59:17.940Z,22.93
